Latest Coastal Weather Observations for Thevenard

IDS60701

Issued at 2:51 am CST Tuesday 16 July 2024 (issued every 10 minutes, with the page automatically refreshed every 10 minutes)

About coastal observations | Map of coastal stations | Coastal observations for SA | Marine services | Other Formats
Station Details ID: 018207 Name: THEVENARD NTC AWS Lat: -32.15 Lon: 133.64 Height: 5.0 m
Data from the previous 72 hours. | See also: Recent months for locations in South Australia
Date/Time
CST
Wind Sea
Height
m
Swell Vis
km
Cloud Weather Temp
°C
Press
MSL
hPa
Rain since
9am
mm
Dir  Spd
kts
Gust
kts
Height
m
Period
s
Dir
16/02:30am WSW 7 13 - - - - - - - 12.5 1021.5 -
16/02:00am WSW 6 10 - - - - - - - 12.8 1021.7 -
16/01:30am WSW 4 9 - - - - - - - 12.8 1021.6 -
16/01:00am WSW 3 7 - - - - - - - 13.0 1021.7 -
16/12:30am WSW 3 7 - - - - - - - 13.2 1021.7 -
16/12:00am WSW 2 6 - - - - - - - 13.3 1022.0 -
 
Date/Time
CST
Wind Sea
Height
m
Swell Vis
km
Cloud Weather Temp
°C
Press
MSL
hPa
Rain since
9am
mm
Dir  Spd
kts
Gust
kts
Height
m
Period
s
Dir
15/11:30pm WSW 5 17 - - - - - - - 13.6 1022.0 -
15/11:00pm S 4 11 - - - - - - - 13.5 1021.7 -
15/10:30pm SW 3 10 - - - - - - - 13.6 1021.8 -
15/10:00pm SSW 3 8 - - - - - - - 13.7 1021.7 -
15/09:30pm S 4 12 - - - - - - - 13.7 1021.7 -
15/09:00pm WSW 3 6 - - - - - - - 13.4 1021.8 -
15/08:30pm SW 3 10 - - - - - - - 13.5 1021.6 -
15/08:00pm SW 3 8 - - - - - - - 13.7 1021.4 -
15/07:30pm SSW 2 9 - - - - - - - 13.4 1021.2 -
15/07:00pm SSW 3 10 - - - - - - - 12.6 1021.0 -
15/06:30pm SW 3 6 - - - - - - - 13.5 1020.7 -
15/06:00pm SSE 3 11 - - - - - - - 12.6 1020.4 -
15/05:30pm SW 3 12 - - - - - - - 12.9 1020.2 -
15/05:00pm S 4 10 - - - - - - - 13.6 1019.9 -
15/04:30pm WSW 4 9 - - - - - - - 14.3 1019.8 -
15/04:00pm WSW 5 9 - - - - - - - 14.4 1019.6 -
15/03:30pm WSW 6 13 - - - - - - - 14.6 1019.5 -
15/03:00pm WSW 7 14 - - - - - - - 14.6 1019.3 -
15/02:30pm WSW 5 10 - - - - - - - 15.2 1019.2 -
15/02:00pm W 7 11 - - - - - - - 14.6 1019.3 -
15/01:30pm WSW 5 10 - - - - - - - 15.3 1019.4 -
15/01:00pm W 6 9 - - - - - - - 14.8 1019.7 -
15/12:30pm W 6 8 - - - - - - - 14.8 1020.1 -
15/12:00pm W 5 7 - - - - - - - 14.0 1020.7 -
15/11:30am WNW 5 7 - - - - - - - 13.4 1021.0 -
15/11:00am WNW 5 7 - - - - - - - 12.5 1021.2 -
15/10:30am NW 6 7 - - - - - - - 11.7 1021.3 -
15/10:00am NW 6 7 - - - - - - - 10.8 1021.2 -
15/09:30am NW 6 8 - - - - - - - 10.5 1021.0 -
15/09:00am NNW 6 7 - - - - - - - 10.4 1020.6 -
15/08:30am N 5 6 - - - - - - - 9.8 1020.4 -
15/08:00am WNW 3 5 - - - - - - - 9.9 1020.2 -
15/07:30am NNW 3 4 - - - - - - - 10.3 1019.8 -
15/07:00am NW 6 8 - - - - - - - 9.7 1019.8 -
15/06:30am NNW 6 7 - - - - - - - 10.1 1019.6 -
15/06:00am NNW 5 6 - - - - - - - 10.0 1019.3 -
15/05:30am NNW 6 7 - - - - - - - 10.2 1019.2 -
15/05:00am NNE 4 5 - - - - - - - 9.7 1019.2 -
15/04:30am NE 3 4 - - - - - - - 9.6 1019.3 -
15/04:00am NE 2 4 - - - - - - - 9.6 1019.3 -
15/03:30am NE 4 7 - - - - - - - 9.5 1019.5 -
15/03:00am NNW 4 6 - - - - - - - 10.3 1019.4 -
15/02:30am N 3 4 - - - - - - - 10.7 1019.4 -
15/02:00am NE 2 4 - - - - - - - 10.4 1019.3 -
15/01:30am NNE 3 4 - - - - - - - 10.6 1019.3 -
15/01:00am NE 3 4 - - - - - - - 10.6 1019.5 -
15/12:30am NE 4 6 - - - - - - - 11.1 1019.8 -
15/12:00am WSW 1 3 - - - - - - - 12.8 1020.0 -
 
Date/Time
CST
Wind Sea
Height
m
Swell Vis
km
Cloud Weather Temp
°C
Press
MSL
hPa
Rain since
9am
mm
Dir  Spd
kts
Gust
kts
Height
m
Period
s
Dir
14/11:30pm WSW 1 3 - - - - - - - 12.6 1020.1 -
14/11:00pm WSW 1 4 - - - - - - - 13.2 1020.4 -
14/10:30pm WSW 1 2 - - - - - - - 13.2 1020.6 -
14/10:00pm WSW 1 3 - - - - - - - 13.2 1020.5 -
14/09:30pm WSW 2 4 - - - - - - - 13.0 1020.5 -
14/09:00pm WSW 1 4 - - - - - - - 13.1 1020.6 -
14/08:30pm SW 1 4 - - - - - - - 13.3 1020.8 -
14/08:00pm SW 1 5 - - - - - - - 13.3 1020.8 -
14/07:30pm WSW 2 5 - - - - - - - 13.3 1020.8 -
14/07:00pm WSW 2 5 - - - - - - - 13.5 1020.6 -
14/06:30pm WSW 2 5 - - - - - - - 13.3 1020.4 -
14/06:00pm WSW 2 5 - - - - - - - 13.5 1020.3 -
14/05:30pm WSW 4 7 - - - - - - - 13.7 1020.2 -
14/05:00pm WSW 2 4 - - - - - - - 13.9 1020.0 -
14/04:30pm W 5 7 - - - - - - - 13.5 1020.1 -
14/04:00pm W 9 13 - - - - - - - 13.3 1020.2 -
14/03:30pm WSW 2 7 - - - - - - - 14.3 1020.1 -
14/03:00pm SSW 2 7 - - - - - - - 14.1 1019.8 -
14/02:30pm WSW 2 6 - - - - - - - 14.2 1019.8 -
14/02:00pm WSW 2 4 - - - - - - - 14.2 1020.0 -
14/01:30pm WSW 2 4 - - - - - - - 14.4 1020.2 -
14/01:00pm WSW 2 3 - - - - - - - 14.9 1020.6 -
14/12:30pm WSW 1 2 - - - - - - - 14.6 1020.9 -
14/12:00pm W 1 3 - - - - - - - 14.1 1021.4 -
14/11:30am WNW 1 2 - - - - - - - 12.6 1021.8 -
14/11:00am WSW 1 5 - - - - - - - 12.3 1022.3 -
14/10:30am NNW 2 3 - - - - - - - 12.7 1022.3 -
14/10:00am NNW 2 3 - - - - - - - 11.9 1022.2 -
14/09:30am NNW 3 5 - - - - - - - 11.1 1022.0 -
14/09:00am NNW 4 5 - - - - - - - 10.7 1021.8 -
14/08:30am NNW 4 5 - - - - - - - 11.0 1021.7 -
14/08:00am NW 6 7 - - - - - - - 10.8 1021.7 -
14/07:30am N 4 5 - - - - - - - 10.8 1021.7 -
14/07:00am N 4 5 - - - - - - - 11.1 1021.5 -
14/06:30am NNW 3 4 - - - - - - - 11.2 1021.2 -
14/06:00am NNW 4 5 - - - - - - - 11.4 1021.0 -
14/05:30am NNW 3 4 - - - - - - - 11.4 1020.9 -
14/05:00am N 2 2 - - - - - - - 11.4 1020.8 -
14/04:30am N 4 5 - - - - - - - 11.3 1020.9 -
14/04:00am N 4 5 - - - - - - - 11.2 1021.0 -
14/03:30am NNW 3 5 - - - - - - - 11.7 1021.0 -
14/03:00am NNW 1 3 - - - - - - - 12.0 1020.9 -
14/02:30am NW 4 6 - - - - - - - 11.9 1020.9 -
14/02:00am NW 5 8 - - - - - - - 12.3 1021.0 -
14/01:30am WNW 6 7 - - - - - - - 12.1 1020.9 -
14/01:00am NW 5 6 - - - - - - - 12.2 1021.0 -
14/12:30am NW 5 6 - - - - - - - 12.1 1021.2 -
14/12:00am NW 6 7 - - - - - - - 12.0 1021.6 -
 
Date/Time
CST
Wind Sea
Height
m
Swell Vis
km
Cloud Weather Temp
°C
Press
MSL
hPa
Rain since
9am
mm
Dir  Spd
kts
Gust
kts
Height
m
Period
s
Dir
13/11:30pm NNW 5 7 - - - - - - - 12.0 1021.7 -
13/11:00pm NW 5 6 - - - - - - - 12.3 1021.8 -
13/10:30pm NW 6 8 - - - - - - - 12.3 1021.8 -
13/10:00pm NNW 4 5 - - - - - - - 12.3 1021.7 -
13/09:30pm NW 3 4 - - - - - - - 12.7 1021.6 -
13/09:00pm NW 3 4 - - - - - - - 13.0 1021.6 -
13/08:30pm WSW 3 6 - - - - - - - 13.6 1021.6 -
13/08:00pm WSW 3 5 - - - - - - - 13.7 1021.4 -
13/07:30pm WSW 3 5 - - - - - - - 13.9 1021.1 -
13/07:00pm WSW 3 6 - - - - - - - 14.0 1021.1 -
13/06:30pm WSW 4 6 - - - - - - - 14.1 1020.9 -
13/06:00pm WSW 4 7 - - - - - - - 14.3 1020.6 -
13/05:30pm WSW 4 7 - - - - - - - 14.5 1020.5 -
13/05:00pm WSW 5 7 - - - - - - - 15.2 1020.4 -
13/04:30pm SW 3 5 - - - - - - - 15.0 1020.5 -
13/04:00pm WSW 6 8 - - - - - - - 15.5 1020.5 -
13/03:30pm SW 4 7 - - - - - - - 15.2 1020.4 -
13/03:00pm WSW 3 5 - - - - - - - 14.7 1020.3 -
13/02:30pm SW 2 4 - - - - - - - 15.5 1020.2 -
13/02:00pm WSW 1 3 - - - - - - - 15.0 1020.2 -
13/01:30pm SW 1 2 - - - - - - - 15.6 1020.5 -
13/01:00pm NNW 1 2 - - - - - - - 16.7 1021.0 -
13/12:30pm NNW 5 5 - - - - - - - 14.9 1021.6 -
13/12:00pm N 6 7 - - - - - - - 14.0 1022.2 -
13/11:30am NNW 7 8 - - - - - - - 13.3 1022.8 -
13/11:00am NNW 7 8 - - - - - - - 13.2 1023.1 -
13/10:30am N 6 7 - - - - - - - 12.6 1023.2 -
13/10:00am NNW 6 8 - - - - - - - 12.5 1023.0 -
13/09:30am NNW 9 11 - - - - - - - 11.3 1022.6 -
13/09:00am NNW 9 11 - - - - - - - 9.9 1022.3 -
13/08:30am NW 6 8 - - - - - - - 9.1 1022.4 -
13/08:00am N 6 8 - - - - - - - 9.2 1021.8 -
13/07:30am N 7 9 - - - - - - - 9.2 1021.8 -
13/07:00am N 7 8 - - - - - - - 9.6 1021.5 -
13/06:30am N 6 7 - - - - - - - 10.1 1021.4 -
13/06:00am NNW 7 7 - - - - - - - 10.3 1021.4 -
13/05:30am NNW 5 7 - - - - - - - 10.2 1021.1 -
13/05:00am NNW 3 4 - - - - - - - 10.1 1020.9 -
13/04:30am NNW 5 7 - - - - - - - 10.4 1020.7 -
13/04:00am NNW 5 7 - - - - - - - 10.4 1020.5 -
13/03:30am NNW 5 6 - - - - - - - 10.5 1020.7 -
13/03:00am N 5 6 - - - - - - - 10.7 1020.7 -

Other formats

Comma delimited format used in spreadsheet applications
http://www.bom.gov.au/fwo/IDS60701/IDS60701.95652.axf

JavaScript Object Notation format (JSON) in row-major order
http://www.bom.gov.au/fwo/IDS60701/IDS60701.95652.json

Data quality

Most of these data are generated automatically and are frequently updated. Quality checks on data are not normally performed. It is possible for incorrect values to appear. Refer to information at About Latest Weather Observations and please check the disclaimer before using these data.